Time;durP1;ratioP1;P1;durP2;ratioP2;P2;SDS_P1;SDS_P2;PMS_P1;PMS_P2;Temp;Humidity;BMP_temperature;BMP_pressure;BME280_temperature;BME280_humidity;BME280_pressure;Samples;Min_cycle;Max_cycle;Signal;HPM_P1;HPM_P2
2023/08/20 05:02:23;;;;;;;27.80;17.37;;;;;;;;;;5045417;23;20505;-72
2023/08/20 05:04:49;;;;;;;26.70;16.97;;;;;;;;;;4934288;29;20409;-72
2023/08/20 05:07:15;;;;;;;19.30;14.13;;;;;;;;;;4934032;29;20418;-72
2023/08/20 05:09:41;;;;;;;21.57;14.37;;;;;;;;;;4933895;29;20433;-72
2023/08/20 05:12:07;;;;;;;28.10;16.40;;;;;;;;;;4934214;29;20425;-72
2023/08/20 05:14:33;;;;;;;24.47;16.93;;;;;;;;;;4935690;29;20934;-71
2023/08/20 05:17:00;;;;;;;25.80;16.33;;;;;;;;;;4937839;29;20413;-70
2023/08/20 05:19:26;;;;;;;24.43;15.37;;;;;;;;;;4937202;29;20457;-71
2023/08/20 05:21:55;;;;;;;27.07;15.67;;;;;;;;;;4937492;29;20468;-71
2023/08/20 05:24:21;;;;;;;24.43;15.43;;;;;;;;;;4937645;29;20410;-71
2023/08/20 05:26:47;;;;;;;23.07;15.43;;;;;;;;;;4935848;29;20493;-71
2023/08/20 05:29:13;;;;;;;23.03;15.13;;;;;;;;;;4937048;29;20485;-71
2023/08/20 05:31:39;;;;;;;23.30;14.40;;;;;;;;;;4937252;29;20501;-71
2023/08/20 05:34:05;;;;;;;22.87;14.43;;;;;;;;;;4937385;29;20449;-71
2023/08/20 05:36:31;;;;;;;17.33;12.33;;;;;;;;;;4937187;29;20406;-71
2023/08/20 05:38:57;;;;;;;19.80;13.63;;;;;;;;;;4937035;29;20485;-71
2023/08/20 05:41:23;;;;;;;23.03;14.20;;;;;;;;;;4937178;29;20434;-72
2023/08/20 05:43:49;;;;;;;24.37;12.57;;;;;;;;;;4937018;29;20410;-72
2023/08/20 05:46:15;;;;;;;26.37;14.60;;;;;;;;;;4937167;29;21003;-72
2023/08/20 05:48:41;;;;;;;18.27;12.67;;;;;;;;;;4936704;29;20797;-72
2023/08/20 05:51:06;;;;;;;20.97;12.50;;;;;;;;;;4935733;29;20434;-72
2023/08/20 05:53:32;;;;;;;20.27;13.43;;;;;;;;;;4937085;29;20500;-72
2023/08/20 05:55:58;;;;;;;21.57;14.10;;;;;;;;;;4936771;29;20440;-72
2023/08/20 05:58:24;;;;;;;22.60;15.30;;;;;;;;;;4936426;29;20429;-71
2023/08/20 06:00:50;;;;;;;19.70;15.07;;;;;;;;;;4936520;29;20509;-71
2023/08/20 06:03:16;;;;;;;19.67;14.77;;;;;;;;;;4936766;29;20418;-71
2023/08/20 06:05:42;;;;;;;19.80;14.30;;;;;;;;;;4935429;29;20425;-73
2023/08/20 06:08:08;;;;;;;18.43;13.90;;;;;;;;;;4936247;29;20432;-72
2023/08/20 06:10:34;;;;;;;16.27;11.90;;;;;;;;;;4936665;29;20434;-72
2023/08/20 06:13:00;;;;;;;21.43;13.53;;;;;;;;;;4936611;29;20418;-72
2023/08/20 06:15:26;;;;;;;16.70;12.27;;;;;;;;;;4936422;29;20410;-72
2023/08/20 06:17:52;;;;;;;14.73;12.23;;;;;;;;;;4936304;29;20520;-72
2023/08/20 06:20:18;;;;;;;18.37;13.70;;;;;;;;;;4936079;29;20469;-72
2023/08/20 06:22:44;;;;;;;18.73;13.07;;;;;;;;;;4936477;29;20432;-72
2023/08/20 06:25:10;;;;;;;16.30;13.70;;;;;;;;;;4935908;29;20919;-72
2023/08/20 06:27:36;;;;;;;19.37;13.50;;;;;;;;;;4936462;29;20994;-72
2023/08/20 06:30:02;;;;;;;14.47;11.73;;;;;;;;;;4935785;29;20930;-71
2023/08/20 06:32:28;;;;;;;21.37;13.00;;;;;;;;;;4936220;29;20924;-72
2023/08/20 06:34:54;;;;;;;23.17;13.27;;;;;;;;;;4936457;29;20764;-73
2023/08/20 06:37:20;;;;;;;25.40;15.43;;;;;;;;;;4936106;29;20966;-72
2023/08/20 06:39:46;;;;;;;23.73;14.13;;;;;;;;;;4935740;29;20467;-72
2023/08/20 06:42:12;;;;;;;24.83;13.33;;;;;;;;;;4936017;29;20425;-72
2023/08/20 06:44:38;;;;;;;25.00;13.77;;;;;;;;;;4935857;29;20892;-72
2023/08/20 06:47:03;;;;;;;15.47;13.53;;;;;;;;;;4935816;29;20787;-72
2023/08/20 06:49:29;;;;;;;14.90;11.80;;;;;;;;;;4935949;29;20413;-72
2023/08/20 06:51:55;;;;;;;18.80;14.33;;;;;;;;;;4935842;29;20545;-72
2023/08/20 06:54:22;;;;;;;18.53;13.43;;;;;;;;;;4935906;29;20416;-72
2023/08/20 06:56:48;;;;;;;16.23;13.00;;;;;;;;;;4935689;29;20434;-72
2023/08/20 06:59:14;;;;;;;23.17;14.20;;;;;;;;;;4935355;29;20868;-72
2023/08/20 07:01:40;;;;;;;31.23;17.40;;;;;;;;;;4935645;29;20804;-72
2023/08/20 07:04:06;;;;;;;21.70;14.57;;;;;;;;;;4935640;29;20410;-72
2023/08/20 07:06:32;;;;;;;16.37;13.37;;;;;;;;;;4935420;29;20496;-72
2023/08/20 07:08:58;;;;;;;22.43;14.57;;;;;;;;;;4935556;29;20970;-72
2023/08/20 07:11:24;;;;;;;24.57;13.03;;;;;;;;;;4935664;29;20441;-71
2023/08/20 07:13:50;;;;;;;16.63;12.27;;;;;;;;;;4935502;29;20509;-72
2023/08/20 07:16:16;;;;;;;21.37;13.57;;;;;;;;;;4933988;29;20433;-72
2023/08/20 07:18:42;;;;;;;19.93;12.47;;;;;;;;;;4935261;29;20420;-72
2023/08/20 07:21:08;;;;;;;19.70;13.70;;;;;;;;;;4935956;29;20434;-72
2023/08/20 07:23:34;;;;;;;18.30;14.97;;;;;;;;;;4935653;29;20410;-72
2023/08/20 07:26:07;;;;;;;20.77;12.10;;;;;;;;;;4934989;29;20417;-72
2023/08/20 07:31:18;;;;;;;17.80;12.30;;;;;;;;;;4935451;29;20436;-72
2023/08/20 07:33:47;;;;;;;21.80;14.13;;;;;;;;;;4935127;29;20500;-72
2023/08/20 07:36:14;;;;;;;24.03;13.97;;;;;;;;;;4934778;29;20461;-72
2023/08/20 07:38:43;;;;;;;18.70;14.63;;;;;;;;;;4934203;29;20412;-72
2023/08/20 07:41:09;;;;;;;23.97;13.80;;;;;;;;;;4934736;29;20453;-72
2023/08/20 07:43:35;;;;;;;20.67;13.37;;;;;;;;;;4934873;29;20406;-73
2023/08/20 07:46:01;;;;;;;21.07;13.10;;;;;;;;;;4934806;29;20414;-72
2023/08/20 07:48:27;;;;;;;19.40;14.00;;;;;;;;;;4934820;29;20458;-72
2023/08/20 07:50:53;;;;;;;19.53;13.70;;;;;;;;;;4934989;29;20493;-72
2023/08/20 07:53:19;;;;;;;23.47;15.47;;;;;;;;;;4933543;29;20429;-72
2023/08/20 07:55:45;;;;;;;20.27;14.80;;;;;;;;;;4934997;29;20486;-72
2023/08/20 07:58:11;;;;;;;18.80;13.87;;;;;;;;;;4934440;29;20516;-72
2023/08/20 08:00:37;;;;;;;18.13;14.47;;;;;;;;;;4934603;29;20994;-72
2023/08/20 08:03:03;;;;;;;16.23;13.47;;;;;;;;;;4934942;29;20463;-72
2023/08/20 08:05:29;;;;;;;23.13;15.90;;;;;;;;;;4934794;29;20417;-72
2023/08/20 08:07:55;;;;;;;23.30;14.33;;;;;;;;;;4933961;29;20466;-72
2023/08/20 08:10:21;;;;;;;28.60;15.40;;;;;;;;;;4934581;29;20520;-72
2023/08/20 08:12:47;;;;;;;18.60;14.93;;;;;;;;;;4934778;29;20451;-72
2023/08/20 08:15:13;;;;;;;23.40;13.60;;;;;;;;;;4934931;29;20425;-72
2023/08/20 08:17:39;;;;;;;27.13;14.80;;;;;;;;;;4934639;29;20496;-72
2023/08/20 08:20:05;;;;;;;24.17;14.70;;;;;;;;;;4934086;29;20602;-71
2023/08/20 08:22:31;;;;;;;20.23;14.70;;;;;;;;;;4934670;29;20857;-72
2023/08/20 08:24:57;;;;;;;19.97;13.43;;;;;;;;;;4934616;29;20420;-72
2023/08/20 08:27:23;;;;;;;20.47;15.10;;;;;;;;;;4934775;29;20990;-72
2023/08/20 08:29:49;;;;;;;22.73;14.97;;;;;;;;;;4934031;29;20448;-71
2023/08/20 08:32:15;;;;;;;17.60;13.03;;;;;;;;;;4934169;29;20449;-72
2023/08/20 08:34:41;;;;;;;17.93;13.00;;;;;;;;;;4934495;29;20425;-71
2023/08/20 08:37:07;;;;;;;18.47;13.10;;;;;;;;;;4934547;29;20453;-71
2023/08/20 08:39:33;;;;;;;21.43;14.20;;;;;;;;;;4934450;29;20461;-72
2023/08/20 08:42:05;;;;;;;19.70;14.03;;;;;;;;;;4934786;29;20451;-71
2023/08/20 08:44:33;;;;;;;22.30;14.60;;;;;;;;;;4919816;29;20432;-71
2023/08/20 08:46:59;;;;;;;18.47;12.60;;;;;;;;;;4934595;29;20406;-71
2023/08/20 08:49:25;;;;;;;18.37;13.80;;;;;;;;;;4936374;29;20425;-71
2023/08/20 08:51:54;;;;;;;19.83;15.10;;;;;;;;;;4938012;29;20437;-71
2023/08/20 08:54:20;;;;;;;22.80;14.37;;;;;;;;;;4937740;29;21016;-71
2023/08/20 08:56:46;;;;;;;15.93;11.90;;;;;;;;;;4937876;29;20417;-71
2023/08/20 08:59:12;;;;;;;21.37;13.90;;;;;;;;;;4937591;29;20472;-71
2023/08/20 09:01:39;;;;;;;18.00;14.20;;;;;;;;;;4938065;29;20452;-71
2023/08/20 09:04:05;;;;;;;23.03;14.97;;;;;;;;;;4936131;29;20448;-71
2023/08/20 09:06:44;;;;;;;20.87;14.47;;;;;;;;;;4937604;29;20603;-71
2023/08/20 09:09:10;;;;;;;22.40;13.87;;;;;;;;;;4936590;29;20433;-71
2023/08/20 09:11:36;;;;;;;18.00;14.23;;;;;;;;;;4949670;29;20429;-71
2023/08/20 09:14:02;;;;;;;18.70;13.60;;;;;;;;;;4962333;28;20436;-71
2023/08/20 09:16:30;;;;;;;18.17;12.80;;;;;;;;;;4962272;29;20449;-71
2023/08/20 09:18:59;;;;;;;21.83;14.03;;;;;;;;;;4958402;29;20532;-71
2023/08/20 09:21:30;;;;;;;17.20;14.00;;;;;;;;;;4948415;29;20449;-71
2023/08/20 09:23:57;;;;;;;18.80;13.87;;;;;;;;;;4954231;28;20406;-71
2023/08/20 09:26:23;;;;;;;19.03;13.80;;;;;;;;;;4960237;29;20413;-71
2023/08/20 09:28:49;;;;;;;19.33;13.67;;;;;;;;;;4959533;29;20410;-71
2023/08/20 09:31:15;;;;;;;24.50;13.97;;;;;;;;;;4957997;28;20542;-71
2023/08/20 09:33:55;;;;;;;18.93;14.40;;;;;;;;;;4941118;29;20456;-71
2023/08/20 09:36:30;;;;;;;16.97;13.57;;;;;;;;;;4948089;29;20891;-71
2023/08/20 09:38:56;;;;;;;23.00;14.27;;;;;;;;;;4937208;29;20473;-72
2023/08/20 09:41:23;;;;;;;18.70;14.40;;;;;;;;;;4937934;29;20446;-71
2023/08/20 09:43:53;;;;;;;19.57;14.03;;;;;;;;;;4937091;29;20433;-71
2023/08/20 09:46:20;;;;;;;19.20;14.93;;;;;;;;;;4937184;29;20429;-72
2023/08/20 09:48:49;;;;;;;21.53;15.30;;;;;;;;;;4936870;29;21020;-72
2023/08/20 09:51:19;;;;;;;14.87;13.63;;;;;;;;;;4936839;29;20434;-72
2023/08/20 09:53:47;;;;;;;20.87;14.17;;;;;;;;;;4937025;29;20417;-72
2023/08/20 09:56:18;;;;;;;17.93;13.37;;;;;;;;;;4936515;29;20426;-72
2023/08/20 09:58:44;;;;;;;17.67;12.30;;;;;;;;;;4937002;29;20418;-72
2023/08/20 10:01:10;;;;;;;17.77;13.43;;;;;;;;;;4936073;29;20801;-71
2023/08/20 10:03:38;;;;;;;19.07;13.80;;;;;;;;;;4936401;29;20432;-71
2023/08/20 10:06:04;;;;;;;20.00;12.90;;;;;;;;;;4936866;29;20418;-72
2023/08/20 10:08:29;;;;;;;18.73;13.00;;;;;;;;;;4936816;29;20410;-71
2023/08/20 10:10:55;;;;;;;19.80;12.20;;;;;;;;;;4936519;29;20437;-71
2023/08/20 10:13:22;;;;;;;20.90;13.83;;;;;;;;;;4936223;29;20429;-71
2023/08/20 10:15:48;;;;;;;18.63;12.77;;;;;;;;;;4937409;29;20448;-71
2023/08/20 10:18:14;;;;;;;18.20;12.00;;;;;;;;;;4936441;29;20844;-71
2023/08/20 10:20:40;;;;;;;22.07;13.53;;;;;;;;;;4936168;29;20496;-71
2023/08/20 10:23:06;;;;;;;18.90;11.67;;;;;;;;;;4936927;29;20410;-71
2023/08/20 10:25:40;;;;;;;18.13;12.70;;;;;;;;;;4936313;29;20480;-70
2023/08/20 10:28:16;;;;;;;19.40;12.20;;;;;;;;;;4936086;29;20406;-71
2023/08/20 10:31:01;;;;;;;17.60;12.30;;;;;;;;;;4935957;29;20437;-70
2023/08/20 10:33:27;;;;;;;17.30;11.90;;;;;;;;;;4936782;29;20926;-71
2023/08/20 10:35:53;;;;;;;15.07;11.23;;;;;;;;;;4935891;29;20421;-71
2023/08/20 10:38:19;;;;;;;12.50;11.63;;;;;;;;;;4935994;29;20409;-71
2023/08/20 10:40:51;;;;;;;14.57;11.37;;;;;;;;;;4934543;29;21034;-70
2023/08/20 10:43:26;;;;;;;12.93;10.40;;;;;;;;;;4933813;29;20923;-72
2023/08/20 10:46:11;;;;;;;13.63;11.93;;;;;;;;;;4936155;29;20413;-71
2023/08/20 10:48:39;;;;;;;17.83;11.20;;;;;;;;;;4935669;29;20406;-71
2023/08/20 10:51:09;;;;;;;17.00;11.00;;;;;;;;;;4935984;29;20434;-70
2023/08/20 10:53:35;;;;;;;18.57;12.40;;;;;;;;;;4935775;29;20917;-70
2023/08/20 10:56:12;;;;;;;14.63;10.27;;;;;;;;;;4935339;29;20512;-71
2023/08/20 10:58:42;;;;;;;13.90;10.90;;;;;;;;;;4935637;29;20899;-71
2023/08/20 11:01:19;;;;;;;11.90;10.03;;;;;;;;;;4935259;29;20462;-70
2023/08/20 11:03:45;;;;;;;17.13;11.43;;;;;;;;;;4935353;29;20433;-70
2023/08/20 11:06:12;;;;;;;13.97;11.10;;;;;;;;;;4935482;29;20421;-71
2023/08/20 11:08:39;;;;;;;16.00;9.93;;;;;;;;;;4935290;29;20422;-71
2023/08/20 11:11:05;;;;;;;16.57;10.10;;;;;;;;;;4935536;29;20441;-71
2023/08/20 11:13:35;;;;;;;15.80;10.30;;;;;;;;;;4935503;29;20418;-71
2023/08/20 11:16:02;;;;;;;19.40;11.07;;;;;;;;;;4972754;23;20505;-72
2023/08/20 11:18:28;;;;;;;14.77;9.40;;;;;;;;;;4954509;29;20405;-71
2023/08/20 11:20:55;;;;;;;18.33;10.17;;;;;;;;;;4954913;29;20460;-71
2023/08/20 11:23:21;;;;;;;9.10;8.50;;;;;;;;;;4954769;28;20416;-72
2023/08/20 11:25:47;;;;;;;18.40;9.70;;;;;;;;;;4954504;29;20483;-72
2023/08/20 11:28:13;;;;;;;11.20;9.50;;;;;;;;;;4953984;29;20433;-72
2023/08/20 11:30:39;;;;;;;13.60;9.70;;;;;;;;;;4954227;29;20433;-72
2023/08/20 11:33:05;;;;;;;14.57;9.90;;;;;;;;;;4954331;29;20781;-71
2023/08/20 11:35:32;;;;;;;16.80;9.20;;;;;;;;;;4954333;29;20429;-72
2023/08/20 11:37:58;;;;;;;14.13;10.23;;;;;;;;;;4954400;29;20496;-71
2023/08/20 11:40:25;;;;;;;13.10;11.03;;;;;;;;;;4954197;29;20464;-71
2023/08/20 11:42:52;;;;;;;13.93;9.93;;;;;;;;;;4954324;28;20483;-72
2023/08/20 11:45:18;;;;;;;12.73;10.37;;;;;;;;;;4954500;29;20436;-72
2023/08/20 11:47:44;;;;;;;17.10;9.90;;;;;;;;;;4954662;29;20409;-72
2023/08/20 11:50:10;;;;;;;12.03;9.53;;;;;;;;;;4954187;29;20431;-72
2023/08/20 11:52:39;;;;;;;15.60;10.40;;;;;;;;;;4953925;29;20193;-72
2023/08/20 11:55:06;;;;;;;11.57;9.53;;;;;;;;;;4953918;28;20432;-72
2023/08/20 11:57:32;;;;;;;16.03;9.40;;;;;;;;;;4954193;29;20435;-71
2023/08/20 12:00:09;;;;;;;12.70;9.00;;;;;;;;;;4953630;29;20468;-75
2023/08/20 12:02:35;;;;;;;14.27;8.67;;;;;;;;;;4952609;29;20452;-73
2023/08/20 12:05:01;;;;;;;16.23;9.27;;;;;;;;;;4954120;29;20930;-73
2023/08/20 12:07:27;;;;;;;10.27;8.67;;;;;;;;;;4953933;29;20957;-73
2023/08/20 12:09:53;;;;;;;15.47;8.43;;;;;;;;;;4953883;29;20413;-73
2023/08/20 12:12:20;;;;;;;10.87;9.60;;;;;;;;;;4954119;29;20765;-73
2023/08/20 12:14:47;;;;;;;15.57;9.80;;;;;;;;;;4953340;28;20487;-72
2023/08/20 12:17:13;;;;;;;10.97;9.40;;;;;;;;;;4952846;29;20503;-73
2023/08/20 12:19:39;;;;;;;12.90;9.00;;;;;;;;;;4952843;29;20472;-73
2023/08/20 12:22:05;;;;;;;12.37;8.47;;;;;;;;;;4953721;29;20405;-73
2023/08/20 12:24:30;;;;;;;12.37;8.90;;;;;;;;;;4956651;28;20439;-72
2023/08/20 12:26:57;;;;;;;12.33;8.77;;;;;;;;;;4956240;29;20203;-72
2023/08/20 12:29:23;;;;;;;11.17;9.10;;;;;;;;;;4957243;29;20192;-72
2023/08/20 12:31:49;;;;;;;11.93;9.70;;;;;;;;;;4957683;29;20440;-72
2023/08/20 12:34:15;;;;;;;10.17;9.07;;;;;;;;;;4957790;29;20413;-73
2023/08/20 12:36:41;;;;;;;11.80;8.90;;;;;;;;;;4957973;29;20796;-72
2023/08/20 12:39:07;;;;;;;13.43;8.97;;;;;;;;;;4955920;29;20586;-72
2023/08/20 12:41:35;;;;;;;10.33;8.33;;;;;;;;;;4958154;29;20419;-72
2023/08/20 12:44:01;;;;;;;14.70;8.80;;;;;;;;;;4958104;29;20421;-72
2023/08/20 12:46:27;;;;;;;11.93;8.87;;;;;;;;;;4957364;29;20575;-72
2023/08/20 12:48:53;;;;;;;12.17;9.20;;;;;;;;;;4957310;29;20424;-72
2023/08/20 12:51:19;;;;;;;13.27;9.47;;;;;;;;;;4957778;29;20899;-72
2023/08/20 12:53:45;;;;;;;15.80;9.20;;;;;;;;;;4956042;28;20455;-72
2023/08/20 12:56:11;;;;;;;14.00;9.20;;;;;;;;;;4955970;29;20551;-72
2023/08/20 12:58:37;;;;;;;12.83;9.13;;;;;;;;;;4957143;29;20977;-72
2023/08/20 13:01:03;;;;;;;10.77;8.43;;;;;;;;;;4957351;29;20467;-72
2023/08/20 13:03:30;;;;;;;18.73;8.83;;;;;;;;;;4956681;29;20464;-72
2023/08/20 13:05:57;;;;;;;13.10;9.17;;;;;;;;;;4956854;29;20448;-72
2023/08/20 13:08:23;;;;;;;14.80;9.00;;;;;;;;;;4957222;29;20491;-72
2023/08/20 13:10:58;;;;;;;17.23;9.47;;;;;;;;;;4957245;29;20417;-71
2023/08/20 13:13:24;;;;;;;11.17;8.10;;;;;;;;;;4957087;29;20459;-71
2023/08/20 13:15:54;;;;;;;17.53;8.90;;;;;;;;;;4955098;29;20468;-71
2023/08/20 13:18:24;;;;;;;11.43;8.70;;;;;;;;;;4955357;29;20869;-72
2023/08/20 13:20:50;;;;;;;12.10;8.60;;;;;;;;;;4956973;29;20464;-72
2023/08/20 13:23:16;;;;;;;10.70;8.03;;;;;;;;;;4956784;29;20413;-72
2023/08/20 13:25:43;;;;;;;11.80;8.07;;;;;;;;;;4955878;28;20432;-71
2023/08/20 13:28:09;;;;;;;16.27;8.20;;;;;;;;;;4956162;29;20508;-72
2023/08/20 13:30:35;;;;;;;9.60;8.10;;;;;;;;;;4957115;29;20487;-71
2023/08/20 13:33:01;;;;;;;13.53;9.30;;;;;;;;;;4957166;28;20428;-72
2023/08/20 13:35:27;;;;;;;14.47;8.80;;;;;;;;;;4957954;28;20488;-72
2023/08/20 13:37:53;;;;;;;9.63;8.07;;;;;;;;;;4957435;29;20524;-72
2023/08/20 13:40:19;;;;;;;12.03;7.47;;;;;;;;;;4956719;29;20570;-71
2023/08/20 13:42:45;;;;;;;12.40;9.00;;;;;;;;;;4955987;29;20420;-71
2023/08/20 13:45:11;;;;;;;16.97;9.90;;;;;;;;;;4957354;29;20471;-71
2023/08/20 13:47:37;;;;;;;17.00;9.17;;;;;;;;;;4957499;29;20746;-71
2023/08/20 13:50:04;;;;;;;11.60;8.57;;;;;;;;;;4955397;28;20456;-71
2023/08/20 13:52:30;;;;;;;12.83;9.53;;;;;;;;;;4955850;29;20520;-72
2023/08/20 13:54:56;;;;;;;15.43;9.47;;;;;;;;;;4956369;29;20460;-71
2023/08/20 13:57:22;;;;;;;15.53;10.20;;;;;;;;;;4954944;28;20426;-73
2023/08/20 13:59:48;;;;;;;17.40;9.00;;;;;;;;;;4956879;29;20468;-72
2023/08/20 14:02:14;;;;;;;14.33;9.70;;;;;;;;;;4968378;29;20491;-71
2023/08/20 14:04:40;;;;;;;18.13;10.10;;;;;;;;;;4960087;29;20791;-71
2023/08/20 14:07:06;;;;;;;17.13;11.13;;;;;;;;;;4960495;29;20782;-71
2023/08/20 14:09:34;;;;;;;13.37;10.00;;;;;;;;;;4960171;29;20424;-72
2023/08/20 14:12:00;;;;;;;14.37;9.20;;;;;;;;;;4960122;28;20911;-72
2023/08/20 14:14:26;;;;;;;14.67;10.00;;;;;;;;;;4961238;28;20427;-72
2023/08/20 14:16:52;;;;;;;14.97;9.90;;;;;;;;;;4958761;29;20495;-72
2023/08/20 14:19:18;;;;;;;15.20;10.37;;;;;;;;;;4960890;29;20475;-72
2023/08/20 14:21:44;;;;;;;18.73;10.70;;;;;;;;;;4962536;29;20423;-73
2023/08/20 14:24:10;;;;;;;13.80;10.90;;;;;;;;;;4962228;29;20496;-74
2023/08/20 14:26:36;;;;;;;14.63;10.00;;;;;;;;;;4961376;29;20437;-73
2023/08/20 14:29:02;;;;;;;13.33;10.27;;;;;;;;;;4964152;28;20421;-73
2023/08/20 14:31:28;;;;;;;14.73;9.53;;;;;;;;;;4956305;29;20435;-73
2023/08/20 14:33:55;;;;;;;13.33;9.20;;;;;;;;;;4956151;29;20423;-73
2023/08/20 14:36:21;;;;;;;13.60;8.83;;;;;;;;;;4955659;29;20429;-73
2023/08/20 14:38:46;;;;;;;15.20;9.70;;;;;;;;;;4955316;28;20515;-72
2023/08/20 14:41:13;;;;;;;19.00;9.00;;;;;;;;;;4956103;29;20476;-72
2023/08/20 14:43:39;;;;;;;9.90;9.00;;;;;;;;;;4955892;29;20479;-72
2023/08/20 14:46:05;;;;;;;22.70;9.80;;;;;;;;;;4955626;28;20444;-72
2023/08/20 14:48:31;;;;;;;17.53;9.90;;;;;;;;;;4955454;29;20420;-72
2023/08/20 14:50:56;;;;;;;19.27;9.30;;;;;;;;;;4955856;29;20731;-72
2023/08/20 14:53:23;;;;;;;11.57;9.20;;;;;;;;;;4955480;29;20919;-72
2023/08/20 14:55:49;;;;;;;19.17;10.37;;;;;;;;;;4955958;29;20452;-72
2023/08/20 14:58:14;;;;;;;12.70;9.03;;;;;;;;;;4955578;29;20433;-72
2023/08/20 15:00:41;;;;;;;13.60;10.03;;;;;;;;;;4955420;29;20555;-72
2023/08/20 15:03:07;;;;;;;11.40;9.27;;;;;;;;;;4955079;29;20439;-72
2023/08/20 15:05:33;;;;;;;17.73;9.17;;;;;;;;;;4955141;28;20800;-72
2023/08/20 15:07:58;;;;;;;12.57;8.90;;;;;;;;;;4969689;28;20834;-72
2023/08/20 15:10:24;;;;;;;14.83;8.80;;;;;;;;;;4954995;28;20515;-72
2023/08/20 15:12:51;;;;;;;11.23;8.30;;;;;;;;;;4955185;28;20432;-72
2023/08/20 15:15:17;;;;;;;12.70;9.73;;;;;;;;;;4954810;28;20467;-72
2023/08/20 15:17:42;;;;;;;15.57;8.90;;;;;;;;;;4954744;29;20491;-72
2023/08/20 15:20:10;;;;;;;13.30;8.70;;;;;;;;;;4954312;29;20992;-72
2023/08/20 15:22:36;;;;;;;16.37;8.40;;;;;;;;;;4954788;29;20424;-73
2023/08/20 15:25:03;;;;;;;13.20;8.80;;;;;;;;;;4954092;29;20445;-72
2023/08/20 15:27:29;;;;;;;16.93;8.30;;;;;;;;;;4954673;28;20436;-73
2023/08/20 15:29:55;;;;;;;13.47;7.63;;;;;;;;;;4956093;29;20417;-73
2023/08/20 15:32:21;;;;;;;13.30;9.10;;;;;;;;;;4955774;29;20424;-73
2023/08/20 15:34:48;;;;;;;13.53;7.23;;;;;;;;;;4953318;29;20527;-73
2023/08/20 15:37:14;;;;;;;12.97;9.20;;;;;;;;;;4954205;29;20789;-72
2023/08/20 15:39:40;;;;;;;18.47;8.40;;;;;;;;;;4954418;28;20467;-73
2023/08/20 15:42:06;;;;;;;13.50;8.47;;;;;;;;;;4954504;28;20413;-72
2023/08/20 15:44:32;;;;;;;11.70;7.53;;;;;;;;;;4953890;28;20441;-73
2023/08/20 15:46:58;;;;;;;11.30;7.67;;;;;;;;;;4954274;29;20427;-72
2023/08/20 15:49:24;;;;;;;13.20;8.23;;;;;;;;;;4954054;29;20416;-73
2023/08/20 15:51:50;;;;;;;12.03;8.07;;;;;;;;;;4953926;29;20440;-73
2023/08/20 15:54:16;;;;;;;14.37;7.87;;;;;;;;;;4953692;29;20914;-73
2023/08/20 15:56:42;;;;;;;14.90;7.20;;;;;;;;;;4953855;29;20428;-73
2023/08/20 15:59:08;;;;;;;10.20;7.30;;;;;;;;;;4953083;29;20413;-73
2023/08/20 16:01:34;;;;;;;12.23;6.87;;;;;;;;;;4953794;29;20931;-73
2023/08/20 16:04:00;;;;;;;11.40;6.90;;;;;;;;;;4953514;29;20412;-73
2023/08/20 16:06:26;;;;;;;13.83;7.67;;;;;;;;;;4953272;29;20504;-73
2023/08/20 16:08:53;;;;;;;14.30;8.07;;;;;;;;;;4952779;29;20547;-72
2023/08/20 16:11:19;;;;;;;10.23;8.60;;;;;;;;;;4953452;29;20524;-72
2023/08/20 16:13:48;;;;;;;11.03;8.20;;;;;;;;;;4953157;29;20450;-74
2023/08/20 16:16:15;;;;;;;12.93;8.13;;;;;;;;;;4953343;29;20456;-71
2023/08/20 16:18:41;;;;;;;10.10;7.90;;;;;;;;;;4953177;29;20475;-72
2023/08/20 16:21:07;;;;;;;13.93;7.57;;;;;;;;;;4953326;29;20552;-72
2023/08/20 16:23:33;;;;;;;13.30;7.80;;;;;;;;;;4953619;29;20507;-71
2023/08/20 16:25:59;;;;;;;17.60;7.00;;;;;;;;;;4953228;29;20436;-72
2023/08/20 16:28:25;;;;;;;10.80;7.40;;;;;;;;;;4953093;29;20436;-73
2023/08/20 16:30:52;;;;;;;8.37;7.40;;;;;;;;;;4953365;29;20508;-72
2023/08/20 16:33:17;;;;;;;8.23;6.43;;;;;;;;;;4953567;29;20468;-72
2023/08/20 16:35:46;;;;;;;9.93;6.70;;;;;;;;;;4953371;29;20464;-72
2023/08/20 16:38:12;;;;;;;12.10;7.13;;;;;;;;;;4953182;29;20448;-73
2023/08/20 16:40:38;;;;;;;10.70;6.50;;;;;;;;;;4952769;29;20472;-73
2023/08/20 16:43:05;;;;;;;8.23;6.23;;;;;;;;;;4953240;29;20409;-72
2023/08/20 16:45:31;;;;;;;8.20;6.33;;;;;;;;;;4953251;29;20428;-73
2023/08/20 16:47:57;;;;;;;18.80;7.73;;;;;;;;;;4952913;29;20439;-72
2023/08/20 16:50:24;;;;;;;9.70;7.17;;;;;;;;;;4953404;29;20468;-72
2023/08/20 16:52:49;;;;;;;10.37;6.90;;;;;;;;;;4953155;29;20432;-71
2023/08/20 16:55:15;;;;;;;14.83;7.40;;;;;;;;;;4953129;29;20462;-71
2023/08/20 16:57:41;;;;;;;13.53;7.47;;;;;;;;;;4953366;29;20464;-72
2023/08/20 17:00:08;;;;;;;10.53;7.70;;;;;;;;;;4953297;29;20965;-72
2023/08/20 17:02:35;;;;;;;10.97;7.47;;;;;;;;;;4953445;29;20459;-71
2023/08/20 17:05:04;;;;;;;12.67;6.83;;;;;;;;;;4953053;29;20720;-72
2023/08/20 17:07:31;;;;;;;9.57;7.20;;;;;;;;;;4953305;29;20417;-71
2023/08/20 17:09:57;;;;;;;16.80;8.47;;;;;;;;;;4954579;28;20898;-71
2023/08/20 17:12:23;;;;;;;11.33;7.27;;;;;;;;;;4956611;29;20436;-71
2023/08/20 17:14:50;;;;;;;11.30;7.63;;;;;;;;;;4980171;23;20536;-72
2023/08/20 17:17:17;;;;;;;11.10;7.47;;;;;;;;;;4975352;28;20423;-72
2023/08/20 17:19:43;;;;;;;9.47;7.10;;;;;;;;;;4975697;28;20491;-72
2023/08/20 17:22:09;;;;;;;11.70;7.40;;;;;;;;;;4975833;28;20427;-73
2023/08/20 17:24:35;;;;;;;9.50;7.83;;;;;;;;;;4975511;28;20404;-73
2023/08/20 17:27:01;;;;;;;10.63;8.17;;;;;;;;;;4956459;29;20440;-72
2023/08/20 17:29:27;;;;;;;12.57;8.13;;;;;;;;;;4937770;29;20536;-73
2023/08/20 17:31:53;;;;;;;12.93;7.73;;;;;;;;;;4937188;29;20449;-72
2023/08/20 17:34:19;;;;;;;12.63;8.90;;;;;;;;;;4937309;29;20420;-72
2023/08/20 17:36:45;;;;;;;13.33;7.60;;;;;;;;;;4935686;29;20481;-73
2023/08/20 17:39:12;;;;;;;12.83;8.30;;;;;;;;;;4936037;29;20421;-73
2023/08/20 17:41:38;;;;;;;10.47;7.60;;;;;;;;;;4956310;29;20501;-73
2023/08/20 17:44:04;;;;;;;9.20;7.60;;;;;;;;;;4956265;29;20416;-73
2023/08/20 17:46:43;;;;;;;15.93;7.87;;;;;;;;;;4956333;28;20440;-73
2023/08/20 17:49:09;;;;;;;16.90;8.10;;;;;;;;;;4955051;28;20426;-72
2023/08/20 17:51:35;;;;;;;11.17;7.53;;;;;;;;;;4954723;29;20417;-72
2023/08/20 17:54:01;;;;;;;15.83;7.50;;;;;;;;;;4937151;29;20501;-71
2023/08/20 17:56:27;;;;;;;12.70;7.90;;;;;;;;;;4936440;29;20434;-71
2023/08/20 17:58:53;;;;;;;12.30;7.47;;;;;;;;;;4935045;29;20903;-71
2023/08/20 18:01:19;;;;;;;14.30;8.77;;;;;;;;;;4936573;29;20472;-72
2023/08/20 18:03:45;;;;;;;13.93;8.80;;;;;;;;;;4937102;29;20430;-72
2023/08/20 18:06:11;;;;;;;11.73;7.73;;;;;;;;;;4936684;29;21247;-73
2023/08/20 18:08:38;;;;;;;10.17;7.83;;;;;;;;;;4937667;29;20545;-72
2023/08/20 18:11:04;;;;;;;17.13;8.30;;;;;;;;;;4936500;29;20424;-73
2023/08/20 18:13:30;;;;;;;17.40;9.37;;;;;;;;;;4937103;29;20424;-72
2023/08/20 18:15:57;;;;;;;11.80;8.17;;;;;;;;;;4936237;29;20479;-73
2023/08/20 18:18:22;;;;;;;10.70;8.00;;;;;;;;;;4936236;29;20791;-73
2023/08/20 18:20:48;;;;;;;13.33;8.13;;;;;;;;;;4936023;29;20449;-73
2023/08/20 18:23:16;;;;;;;11.30;7.33;;;;;;;;;;4936195;29;20458;-73
2023/08/20 18:25:43;;;;;;;11.57;8.37;;;;;;;;;;4939141;29;20811;-73
2023/08/20 18:28:09;;;;;;;11.60;7.90;;;;;;;;;;4955275;28;20409;-73
2023/08/20 18:30:36;;;;;;;12.67;7.83;;;;;;;;;;4954022;29;20427;-73
2023/08/20 18:33:03;;;;;;;13.30;8.13;;;;;;;;;;4955081;28;20420;-73
2023/08/20 18:35:29;;;;;;;11.93;7.67;;;;;;;;;;4952151;28;20545;-72
2023/08/20 18:37:55;;;;;;;13.07;7.97;;;;;;;;;;4935962;29;20429;-72
2023/08/20 18:40:21;;;;;;;9.77;7.23;;;;;;;;;;4935883;29;20548;-72
2023/08/20 18:42:47;;;;;;;12.83;9.43;;;;;;;;;;4935996;29;20913;-73
2023/08/20 18:45:13;;;;;;;16.57;8.53;;;;;;;;;;4936261;29;20429;-72
2023/08/20 18:47:39;;;;;;;19.43;9.43;;;;;;;;;;4954895;29;20409;-73
2023/08/20 18:50:05;;;;;;;13.13;7.97;;;;;;;;;;4954881;29;20918;-72
2023/08/20 18:52:31;;;;;;;14.87;8.97;;;;;;;;;;4954974;29;20427;-73
2023/08/20 18:54:57;;;;;;;14.57;7.87;;;;;;;;;;4954804;28;20433;-74
2023/08/20 18:57:23;;;;;;;12.60;7.77;;;;;;;;;;4952278;29;20425;-72
2023/08/20 18:59:49;;;;;;;27.83;8.63;;;;;;;;;;4935401;29;20993;-73
2023/08/20 19:02:15;;;;;;;14.00;10.07;;;;;;;;;;4935703;29;20418;-73
2023/08/20 19:04:41;;;;;;;12.50;8.50;;;;;;;;;;4935822;29;20876;-73
2023/08/20 19:07:08;;;;;;;11.40;8.30;;;;;;;;;;4935738;29;20413;-72
2023/08/20 19:09:34;;;;;;;13.63;8.30;;;;;;;;;;4940351;29;20428;-72
2023/08/20 19:12:00;;;;;;;14.03;9.27;;;;;;;;;;4954376;29;20429;-73
2023/08/20 19:14:26;;;;;;;13.60;8.70;;;;;;;;;;4954715;29;20850;-73
2023/08/20 19:16:52;;;;;;;13.70;9.20;;;;;;;;;;4954461;28;20507;-72
2023/08/20 19:19:18;;;;;;;14.43;10.27;;;;;;;;;;4954223;29;20464;-73
2023/08/20 19:21:44;;;;;;;12.77;9.27;;;;;;;;;;4947751;29;20971;-73
2023/08/20 19:24:10;;;;;;;17.40;9.17;;;;;;;;;;4935476;29;20429;-72